13°C Temp
'.PHP_EOL;
6°C Dewpoint
63% Humidity
Temperature
23 KM/H
14 MPH
12 KTS
360°
Due North

Wind
Partly Cloudy
Pressure 1023.72 (hPa)- 30.23 (in)
Visibility 10 (mi) - 16.1 (km)

Current Conditions
KTUL
Location 18(mi)
Metar:
KTUL 220453Z 36012G19KT 10SM FEW080 SCT120 13/06 A3023 RMK AO2 SLP233 T01330061
Sat 21st May 22:53 pm

Airport
  Metar Aviation API Data Provided by https://www.checkwx.com/ Icons created by weather34.com